Time;durP1;ratioP1;P1;durP2;ratioP2;P2;SDS_P1;SDS_P2;PMS_P1;PMS_P2;Temp;Humidity;BMP_temperature;BMP_pressure;BME280_temperature;BME280_humidity;BME280_pressure;Samples;Min_cycle;Max_cycle;Signal;HPM_P1;HPM_P2
2021/04/03 00:00:55;;;;;;;7.88;4.75;;;13.00;44.70;;;;;;5068272;28;20090;-82
2021/04/03 00:03:23;;;;;;;6.32;4.55;;;13.10;45.00;;;;;;5070757;28;20074;-81
2021/04/03 00:05:50;;;;;;;8.68;5.30;;;13.10;45.00;;;;;;5058045;28;20021;-82
2021/04/03 00:08:17;;;;;;;6.57;4.75;;;13.10;44.80;;;;;;5068727;28;20096;-81
2021/04/03 00:11:03;;;;;;;6.50;4.90;;;13.10;44.50;;;;;;5054300;28;20128;-78
2021/04/03 00:13:31;;;;;;;5.38;3.92;;;13.10;44.50;;;;;;5055539;28;20450;-82
2021/04/03 00:15:57;;;;;;;6.90;4.78;;;13.20;44.20;;;;;;5055295;28;20025;-80
2021/04/03 00:18:23;;;;;;;6.60;4.78;;;13.20;44.30;;;;;;5055253;28;20100;-78
2021/04/03 00:20:49;;;;;;;7.50;5.13;;;13.20;44.30;;;;;;5055170;28;20056;-79
2021/04/03 00:23:20;;;;;;;8.10;5.65;;;13.20;44.20;;;;;;5053705;28;20025;-78
2021/04/03 00:25:47;;;;;;;8.02;5.55;;;13.20;44.20;;;;;;5053639;28;20032;-80
2021/04/03 00:28:12;;;;;;;7.40;5.00;;;13.20;44.20;;;;;;5054004;28;20067;-81
2021/04/03 00:30:38;;;;;;;7.75;4.32;;;13.20;44.30;;;;;;5067190;28;20374;-78
2021/04/03 00:33:06;;;;;;;7.57;5.22;;;13.10;44.10;;;;;;5075043;28;20044;-78
2021/04/03 00:35:34;;;;;;;7.28;5.05;;;13.10;44.40;;;;;;5059307;28;20147;-79
2021/04/03 00:38:02;;;;;;;7.63;4.50;;;13.10;44.30;;;;;;5053734;28;20032;-80
2021/04/03 00:40:38;;;;;;;7.53;4.38;;;13.10;44.30;;;;;;5053654;28;20029;-80
2021/04/03 00:43:24;;;;;;;6.00;4.38;;;13.00;44.30;;;;;;5064418;28;20478;-82
2021/04/03 00:45:51;;;;;;;6.43;4.05;;;13.00;44.30;;;;;;5074516;28;20421;-83
2021/04/03 00:48:18;;;;;;;5.05;3.63;;;13.00;44.30;;;;;;5072803;28;20608;-80
2021/04/03 00:50:48;;;;;;;6.05;3.40;;;13.00;44.30;;;;;;5073097;28;20045;-82
2021/04/03 00:53:20;;;;;;;5.28;3.42;;;13.00;44.30;;;;;;5074706;28;20027;-81
2021/04/03 00:55:46;;;;;;;6.35;3.60;;;12.90;44.20;;;;;;5071197;28;20033;-79
2021/04/03 00:58:12;;;;;;;5.53;3.42;;;12.90;44.30;;;;;;5054469;28;20029;-80
2021/04/03 01:00:39;;;;;;;5.95;3.67;;;12.90;44.20;;;;;;5069674;28;20035;-78
2021/04/03 01:03:05;;;;;;;6.60;3.67;;;12.90;44.20;;;;;;5071922;28;20111;-79
2021/04/03 01:05:32;;;;;;;6.50;3.30;;;12.80;44.20;;;;;;5073983;28;20036;-81
2021/04/03 01:07:58;;;;;;;5.50;3.63;;;12.80;44.30;;;;;;5057179;28;20043;-78
2021/04/03 01:10:29;;;;;;;4.68;3.40;;;12.80;44.40;;;;;;5064160;28;20473;-80
2021/04/03 01:13:12;;;;;;;4.88;3.78;;;12.70;44.50;;;;;;5069373;28;20486;-81
2021/04/03 01:16:10;;;;;;;5.63;3.45;;;12.70;44.30;;;;;;5054097;28;20025;-78
2021/04/03 01:19:04;;;;;;;6.93;3.75;;;12.60;44.30;;;;;;5052855;28;20075;-81
2021/04/03 01:21:38;;;;;;;6.90;3.40;;;12.60;44.40;;;;;;5054034;28;20094;-79
2021/04/03 01:24:04;;;;;;;;;;;12.50;44.30;;;;;;5054301;28;20031;-83
2021/04/03 01:26:48;;;;;;;6.50;4.00;;;12.50;43.80;;;;;;5053157;28;20011;-79
2021/04/03 01:29:25;;;;;;;6.63;4.32;;;12.40;44.50;;;;;;5072307;28;20111;-81
2021/04/03 01:31:52;;;;;;;5.28;3.67;;;12.40;44.60;;;;;;5072551;28;20029;-80
2021/04/03 01:34:27;;;;;;;5.53;4.03;;;12.40;44.60;;;;;;5072542;28;20540;-81
2021/04/03 01:37:00;;;;;;;5.82;4.03;;;12.30;44.60;;;;;;5067979;28;20063;-79
2021/04/03 01:39:30;;;;;;;6.10;4.07;;;12.30;44.40;;;;;;5053424;28;20033;-80
2021/04/03 01:42:02;;;;;;;5.18;3.78;;;12.20;44.40;;;;;;5053649;28;20048;-79
2021/04/03 01:44:33;;;;;;;8.25;4.65;;;12.20;44.80;;;;;;5053525;28;20060;-78
2021/04/03 01:47:00;;;;;;;9.55;4.60;;;12.10;45.10;;;;;;5052171;28;20024;-79
2021/04/03 01:49:26;;;;;;;4.47;3.53;;;12.00;45.00;;;;;;5053436;28;20112;-80
2021/04/03 01:51:53;;;;;;;4.53;3.58;;;12.00;45.00;;;;;;5051940;28;20052;-79
2021/04/03 01:54:23;;;;;;;7.72;3.38;;;12.00;45.10;;;;;;5053468;28;20028;-80
2021/04/03 01:56:52;;;;;;;5.28;3.70;;;12.00;45.40;;;;;;5053325;28;20033;-80
2021/04/03 01:59:18;;;;;;;5.18;4.03;;;11.90;45.40;;;;;;5053282;28;20033;-80
2021/04/03 02:01:48;;;;;;;9.45;4.20;;;11.90;45.50;;;;;;5056269;28;20025;-78
2021/04/03 02:04:17;;;;;;;5.50;3.90;;;11.80;45.70;;;;;;5066313;28;20025;-80
2021/04/03 02:06:44;;;;;;;7.82;4.40;;;11.80;45.80;;;;;;5068283;28;20020;-81
2021/04/03 02:09:13;;;;;;;7.32;4.13;;;11.70;45.70;;;;;;5072610;28;20494;-80
2021/04/03 02:11:46;;;;;;;6.45;4.40;;;11.70;45.70;;;;;;5072460;28;20051;-78
2021/04/03 02:14:12;;;;;;;4.20;3.53;;;11.60;45.80;;;;;;5051751;28;20391;-81
2021/04/03 02:16:40;;;;;;;6.72;4.10;;;11.60;45.70;;;;;;5052831;28;20025;-81
2021/04/03 02:19:08;;;;;;;5.32;4.10;;;11.60;45.90;;;;;;5053443;28;20021;-80
2021/04/03 02:21:35;;;;;;;7.70;4.18;;;11.60;46.00;;;;;;5051414;28;20367;-77
2021/04/03 02:24:02;;;;;;;10.13;4.63;;;11.50;46.10;;;;;;5052908;28;20049;-81
2021/04/03 02:26:32;;;;;;;6.45;5.10;;;11.50;46.10;;;;;;5052294;28;20072;-80
2021/04/03 02:28:58;;;;;;;6.80;4.35;;;11.50;46.20;;;;;;5053634;28;20021;-79
2021/04/03 02:31:25;;;;;;;6.60;4.88;;;11.50;45.90;;;;;;5053643;28;20029;-81
2021/04/03 02:33:52;;;;;;;5.97;4.60;;;11.50;46.00;;;;;;5057688;28;20032;-79
2021/04/03 02:36:19;;;;;;;6.43;4.65;;;11.50;46.10;;;;;;5071301;28;20074;-79
2021/04/03 02:38:47;;;;;;;6.07;4.30;;;11.50;46.10;;;;;;5072324;28;20118;-81
2021/04/03 02:41:14;;;;;;;6.78;4.78;;;11.40;46.00;;;;;;5073503;28;20029;-81
2021/04/03 02:43:58;;;;;;;6.60;4.75;;;11.40;46.00;;;;;;5068912;28;20048;-80
2021/04/03 02:46:39;;;;;;;7.28;4.88;;;11.40;46.10;;;;;;5052038;28;20039;-79
2021/04/03 02:49:12;;;;;;;8.48;5.43;;;11.40;46.00;;;;;;5053362;28;20478;-79
2021/04/03 02:51:42;;;;;;;7.18;5.00;;;11.30;46.00;;;;;;5056731;28;20525;-81
2021/04/03 02:54:10;;;;;;;9.90;4.97;;;11.40;46.00;;;;;;5065389;28;20083;-80
2021/04/03 02:56:42;;;;;;;5.82;4.57;;;11.30;46.10;;;;;;5073166;28;20024;-79
2021/04/03 02:59:23;;;;;;;6.80;4.88;;;11.30;46.10;;;;;;5072151;28;20107;-81
2021/04/03 03:01:53;;;;;;;7.57;5.28;;;11.30;46.00;;;;;;5058675;28;20032;-78
2021/04/03 03:04:20;;;;;;;6.70;4.97;;;11.30;45.90;;;;;;5061098;28;20021;-79
2021/04/03 03:06:47;;;;;;;7.47;4.72;;;11.30;45.70;;;;;;5062027;28;20028;-78
2021/04/03 03:09:18;;;;;;;7.32;4.30;;;11.30;45.50;;;;;;5062126;28;20035;-79
2021/04/03 03:11:47;;;;;;;6.45;4.82;;;11.30;45.20;;;;;;5062968;28;20029;-80
2021/04/03 03:14:14;;;;;;;7.05;4.90;;;11.30;45.10;;;;;;5059528;28;20047;-80
2021/04/03 03:16:41;;;;;;;6.32;4.65;;;11.30;45.00;;;;;;5058239;28;20108;-79
2021/04/03 03:19:12;;;;;;;8.57;5.63;;;11.40;44.90;;;;;;5063496;28;20029;-81
2021/04/03 03:21:39;;;;;;;7.80;5.00;;;11.30;44.70;;;;;;5060317;28;20474;-80
2021/04/03 03:24:07;;;;;;;6.75;4.82;;;11.40;44.70;;;;;;5057435;28;20044;-78
2021/04/03 03:26:34;;;;;;;9.82;5.35;;;11.40;44.60;;;;;;5058179;28;20032;-81
2021/04/03 03:29:03;;;;;;;9.90;5.45;;;11.40;44.40;;;;;;5059655;28;20032;-80
2021/04/03 03:31:30;;;;;;;11.68;6.55;;;11.40;44.40;;;;;;5064548;28;20020;-80
2021/04/03 03:33:57;;;;;;;8.15;5.95;;;11.30;44.20;;;;;;5060797;28;20025;-79
2021/04/03 03:36:24;;;;;;;7.47;5.43;;;11.30;44.10;;;;;;5058810;28;20073;-79
2021/04/03 03:38:50;;;;;;;6.25;4.47;;;11.30;44.20;;;;;;5058402;28;20026;-80
2021/04/03 03:41:17;;;;;;;7.72;5.45;;;11.30;44.20;;;;;;5059273;28;20028;-79
2021/04/03 03:43:45;;;;;;;6.07;4.80;;;11.30;44.20;;;;;;5062311;28;20167;-78
2021/04/03 03:46:11;;;;;;;6.82;5.05;;;11.40;44.20;;;;;;5057997;28;20099;-82
2021/04/03 03:48:37;;;;;;;7.20;5.20;;;11.30;44.20;;;;;;5058206;28;20203;-79
2021/04/03 03:51:03;;;;;;;7.63;5.50;;;11.30;44.00;;;;;;5056745;28;20091;-80
2021/04/03 03:53:29;;;;;;;8.63;4.88;;;11.30;44.10;;;;;;5058208;28;20024;-78
2021/04/03 03:55:55;;;;;;;6.93;5.13;;;11.30;44.00;;;;;;5056244;28;20032;-80
2021/04/03 03:58:21;;;;;;;7.47;5.25;;;11.30;44.00;;;;;;5058761;28;20119;-79
2021/04/03 04:00:48;;;;;;;7.38;5.10;;;11.40;43.90;;;;;;5059558;28;20025;-78
2021/04/03 04:03:14;;;;;;;7.18;4.72;;;11.40;43.70;;;;;;5057966;28;20039;-80
2021/04/03 04:05:40;;;;;;;6.68;4.60;;;11.40;43.60;;;;;;5062081;28;20028;-79
2021/04/03 04:08:06;;;;;;;8.60;5.75;;;11.40;43.60;;;;;;5062149;28;20025;-78
2021/04/03 04:10:32;;;;;;;9.93;5.45;;;11.40;43.40;;;;;;5061472;28;20024;-79
2021/04/03 04:13:00;;;;;;;9.13;5.95;;;11.40;43.30;;;;;;5065302;28;20024;-80
2021/04/03 04:15:26;;;;;;;10.25;4.97;;;11.40;43.20;;;;;;5066314;28;20489;-82
2021/04/03 04:17:51;;;;;;;7.20;5.22;;;11.40;43.20;;;;;;5067250;28;20119;-79
2021/04/03 04:20:17;;;;;;;6.65;5.15;;;11.50;43.40;;;;;;5063416;28;20444;-79
2021/04/03 04:22:43;;;;;;;8.95;5.55;;;11.50;43.40;;;;;;5063998;28;20033;-79
2021/04/03 04:25:10;;;;;;;7.47;5.47;;;11.50;43.40;;;;;;5064321;28;20024;-79
2021/04/03 04:27:36;;;;;;;6.70;5.07;;;11.50;43.40;;;;;;5066503;28;20028;-79
2021/04/03 04:30:09;;;;;;;6.82;5.25;;;11.50;43.30;;;;;;5064829;28;20104;-78
2021/04/03 04:32:39;;;;;;;6.65;5.00;;;11.50;43.30;;;;;;5063758;28;20017;-80
2021/04/03 04:35:07;;;;;;;7.10;5.18;;;11.50;43.20;;;;;;5062478;28;20029;-82
2021/04/03 04:37:33;;;;;;;8.73;6.00;;;11.50;43.10;;;;;;5059946;28;20032;-78
2021/04/03 04:40:00;;;;;;;11.80;6.00;;;11.50;43.10;;;;;;5058317;28;20025;-82
2021/04/03 04:42:25;;;;;;;6.70;5.35;;;11.50;43.10;;;;;;5067933;28;20063;-81
2021/04/03 04:44:51;;;;;;;7.78;5.72;;;11.50;43.00;;;;;;5065313;28;20076;-81
2021/04/03 04:47:18;;;;;;;7.57;5.70;;;11.50;43.00;;;;;;5061444;28;20104;-81
2021/04/03 04:49:43;;;;;;;6.32;4.82;;;11.50;43.00;;;;;;5059758;28;20513;-78
2021/04/03 04:52:10;;;;;;;7.75;5.78;;;11.50;43.00;;;;;;5066496;28;20041;-79
2021/04/03 04:54:36;;;;;;;7.38;4.75;;;11.50;43.20;;;;;;5060478;28;20103;-79
2021/04/03 04:57:02;;;;;;;8.95;5.78;;;11.50;43.10;;;;;;5063526;28;20174;-80
2021/04/03 04:59:28;;;;;;;8.43;5.57;;;11.40;43.20;;;;;;5066894;28;20029;-80
2021/04/03 05:01:54;;;;;;;7.40;5.20;;;11.40;43.20;;;;;;5062823;28;20028;-79
2021/04/03 05:04:19;;;;;;;7.00;5.20;;;11.40;43.10;;;;;;5059088;28;20279;-81
2021/04/03 05:06:45;;;;;;;8.75;5.88;;;11.40;43.20;;;;;;5059929;28;20029;-80
2021/04/03 05:09:11;;;;;;;7.35;6.13;;;11.40;43.30;;;;;;5059837;28;20025;-79
2021/04/03 05:11:37;;;;;;;10.48;6.30;;;11.40;43.40;;;;;;5065671;28;20470;-78
2021/04/03 05:14:04;;;;;;;7.15;4.70;;;11.40;43.40;;;;;;5063538;28;20033;-79
2021/04/03 05:16:29;;;;;;;7.30;5.40;;;11.40;43.40;;;;;;5055245;28;20100;-80
2021/04/03 05:18:55;;;;;;;6.90;5.10;;;11.40;43.50;;;;;;5055223;28;20455;-76
2021/04/03 05:21:21;;;;;;;11.50;5.75;;;11.40;43.50;;;;;;5055402;28;20510;-81
2021/04/03 05:23:47;;;;;;;6.72;5.20;;;11.40;43.40;;;;;;5056383;28;20033;-81
2021/04/03 05:26:13;;;;;;;7.10;5.13;;;11.40;43.40;;;;;;5071736;28;20024;-81
2021/04/03 05:28:39;;;;;;;6.10;4.60;;;11.30;43.50;;;;;;5074372;28;20020;-81
2021/04/03 05:31:05;;;;;;;6.13;4.63;;;11.30;43.60;;;;;;5060003;28;20087;-82
2021/04/03 05:33:30;;;;;;;6.82;4.80;;;11.40;43.80;;;;;;5053926;28;20036;-82
2021/04/03 05:35:56;;;;;;;7.88;5.45;;;11.30;43.80;;;;;;5054960;28;20033;-78
2021/04/03 05:38:22;;;;;;;7.35;5.07;;;11.40;43.90;;;;;;5053783;28;20047;-81
2021/04/03 05:40:48;;;;;;;9.13;5.53;;;11.30;43.70;;;;;;5053681;28;20390;-79
2021/04/03 05:43:15;;;;;;;8.40;5.10;;;11.40;43.90;;;;;;5053464;28;20032;-78
2021/04/03 05:45:43;;;;;;;8.52;4.82;;;11.40;44.00;;;;;;5055485;28;20471;-80
2021/04/03 05:48:10;;;;;;;6.63;4.43;;;11.40;44.00;;;;;;5055068;28;20478;-80
2021/04/03 05:50:39;;;;;;;6.78;4.95;;;11.40;44.10;;;;;;5054225;28;20525;-82
2021/04/03 05:53:05;;;;;;;6.43;4.65;;;11.40;44.10;;;;;;5054765;28;20092;-81
2021/04/03 05:55:31;;;;;;;4.30;3.50;;;11.50;44.10;;;;;;5065611;28;20120;-81
2021/04/03 05:57:57;;;;;;;10.70;5.55;;;11.60;44.10;;;;;;5073496;28;20498;-80
2021/04/03 06:00:23;;;;;;;6.85;4.78;;;11.60;44.20;;;;;;5063235;28;20029;-80
2021/04/03 06:02:50;;;;;;;7.45;5.35;;;11.60;43.90;;;;;;5054155;28;20033;-80
2021/04/03 06:05:16;;;;;;;7.15;4.93;;;11.60;43.90;;;;;;5053096;28;20021;-80
2021/04/03 06:07:42;;;;;;;8.80;5.38;;;11.60;43.80;;;;;;5053092;28;20100;-78
2021/04/03 06:10:10;;;;;;;8.18;4.82;;;11.50;43.70;;;;;;5053862;28;20083;-81
2021/04/03 06:12:49;;;;;;;7.40;4.72;;;11.50;43.30;;;;;;5052684;28;20111;-79
2021/04/03 06:15:35;;;;;;;8.55;5.38;;;11.50;43.20;;;;;;5062597;28;20032;-81
2021/04/03 06:18:07;;;;;;;8.60;5.40;;;11.40;43.10;;;;;;5055484;28;20086;-80
2021/04/03 06:20:34;;;;;;;8.38;5.80;;;11.30;42.90;;;;;;5070812;28;20024;-82
2021/04/03 06:23:01;;;;;;;8.13;4.88;;;11.30;42.90;;;;;;5072669;28;20028;-81
2021/04/03 06:25:27;;;;;;;8.55;5.20;;;11.30;42.80;;;;;;5061757;28;20033;-78
2021/04/03 06:28:07;;;;;;;8.27;4.50;;;11.20;42.80;;;;;;5064134;28;20032;-77
2021/04/03 06:30:35;;;;;;;6.57;4.80;;;11.30;42.90;;;;;;5063520;28;20403;-77
2021/04/03 06:33:15;;;;;;;8.63;4.78;;;11.30;42.90;;;;;;5065015;28;20021;-78
2021/04/03 06:35:41;;;;;;;6.53;4.85;;;11.40;42.90;;;;;;5053494;28;20041;-80
2021/04/03 06:38:24;;;;;;;9.88;5.63;;;11.40;42.80;;;;;;5052456;28;20108;-80
2021/04/03 06:40:51;;;;;;;6.72;4.05;;;11.50;42.80;;;;;;5052381;28;20119;-82
2021/04/03 06:43:18;;;;;;;6.88;4.93;;;11.50;42.50;;;;;;5060272;28;20060;-81
2021/04/03 06:45:45;;;;;;;8.77;4.88;;;11.70;42.60;;;;;;5065268;28;20040;-79
2021/04/03 06:48:13;;;;;;;6.45;4.32;;;11.80;42.00;;;;;;5064806;28;20025;-80
2021/04/03 06:50:45;;;;;;;6.75;3.80;;;11.90;42.00;;;;;;5066524;28;20405;-80
2021/04/03 06:53:16;;;;;;;8.18;4.82;;;12.10;41.80;;;;;;5069462;28;20025;-82
2021/04/03 06:55:45;;;;;;;5.35;3.40;;;12.20;40.90;;;;;;5093633;28;20027;-82
2021/04/03 06:58:12;;;;;;;8.93;4.25;;;12.30;41.10;;;;;;5079509;28;20377;-81
2021/04/03 07:00:38;;;;;;;8.25;4.32;;;12.40;40.60;;;;;;5053208;28;20025;-80
2021/04/03 07:03:15;;;;;;;9.23;3.90;;;12.50;40.30;;;;;;5062004;28;20032;-81
2021/04/03 07:05:42;;;;;;;5.53;3.60;;;12.60;40.20;;;;;;5073049;28;20521;-80
2021/04/03 07:08:08;;;;;;;8.52;3.80;;;12.70;39.70;;;;;;5073251;28;20032;-81
2021/04/03 07:10:36;;;;;;;7.25;3.55;;;12.80;39.20;;;;;;5072304;28;20045;-83
2021/04/03 07:13:04;;;;;;;4.72;3.08;;;12.90;39.20;;;;;;5073622;28;20055;-79
2021/04/03 07:15:30;;;;;;;5.55;3.03;;;13.00;38.40;;;;;;5060343;28;20035;-81
2021/04/03 07:17:57;;;;;;;5.68;2.78;;;13.10;38.00;;;;;;5053335;28;20029;-80
2021/04/03 07:20:25;;;;;;;5.57;3.17;;;13.10;37.40;;;;;;5056327;28;20602;-81
2021/04/03 07:23:03;;;;;;;4.25;2.63;;;13.20;37.20;;;;;;5075926;28;20123;-80
2021/04/03 07:25:31;;;;;;;5.32;3.13;;;13.30;37.20;;;;;;5068858;28;20031;-78
2021/04/03 07:27:57;;;;;;;4.53;2.50;;;13.30;36.80;;;;;;5058437;28;20049;-79
2021/04/03 07:30:44;;;;;;;4.13;2.60;;;13.30;37.00;;;;;;5063036;28;20052;-80
2021/04/03 07:33:18;;;;;;;10.60;3.05;;;13.50;37.30;;;;;;5051893;28;20424;-82
2021/04/03 07:35:52;;;;;;;5.55;3.22;;;13.60;37.20;;;;;;5062096;28;20024;-80
2021/04/03 07:38:22;;;;;;;7.25;3.20;;;13.60;36.70;;;;;;5074992;28;20039;-82
2021/04/03 07:40:53;;;;;;;7.38;3.05;;;13.60;36.50;;;;;;5075198;28;20019;-83
2021/04/03 07:43:38;;;;;;;4.13;2.67;;;13.70;36.30;;;;;;5076013;28;20069;-81
2021/04/03 07:46:20;;;;;;;4.32;2.40;;;13.70;36.60;;;;;;5076315;28;20025;-80
2021/04/03 07:48:57;;;;;;;6.82;3.55;;;13.80;36.40;;;;;;5057248;28;20043;-82
2021/04/03 07:51:23;;;;;;;5.13;2.67;;;13.80;36.30;;;;;;5056797;28;20103;-81
2021/04/03 07:53:50;;;;;;;4.63;2.38;;;13.90;36.40;;;;;;5055424;28;20025;-83
2021/04/03 07:56:19;;;;;;;6.93;3.10;;;14.00;36.30;;;;;;5055437;28;20048;-81
2021/04/03 07:58:53;;;;;;;4.35;2.40;;;14.10;35.90;;;;;;5060832;28;20017;-80
2021/04/03 08:01:20;;;;;;;5.38;2.60;;;14.10;35.50;;;;;;5075176;28;20505;-80
2021/04/03 08:03:56;;;;;;;8.40;2.88;;;14.20;36.00;;;;;;5066838;28;20044;-81
2021/04/03 08:06:51;;;;;;;2.92;2.15;;;14.20;35.50;;;;;;5076607;28;20032;-81
2021/04/03 08:09:17;;;;;;;4.00;2.20;;;14.30;35.80;;;;;;5073983;28;20453;-81
2021/04/03 08:11:47;;;;;;;4.32;2.10;;;14.30;35.70;;;;;;5057038;28;20036;-80
2021/04/03 08:14:15;;;;;;;3.05;2.20;;;14.40;35.70;;;;;;5054140;28;20075;-82
2021/04/03 08:16:42;;;;;;;4.10;2.33;;;14.60;36.10;;;;;;5072325;28;20299;-80
2021/04/03 08:19:10;;;;;;;4.30;2.05;;;14.70;35.50;;;;;;5057563;28;20536;-81
2021/04/03 08:21:45;;;;;;;5.55;2.63;;;14.80;35.40;;;;;;5057331;28;20417;-81
2021/04/03 08:24:12;;;;;;;4.38;2.13;;;14.90;35.00;;;;;;5059509;28;20686;-81
2021/04/03 08:26:40;;;;;;;4.55;1.92;;;15.00;34.60;;;;;;5055882;28;20089;-78
2021/04/03 08:29:06;;;;;;;3.17;1.70;;;15.00;34.50;;;;;;5058320;28;20160;-79
2021/04/03 08:31:34;;;;;;;3.03;1.63;;;15.10;34.90;;;;;;5038209;28;20017;-82
2021/04/03 08:34:04;;;;;;;3.75;1.58;;;15.20;34.70;;;;;;5054456;28;20417;-82
2021/04/03 08:36:32;;;;;;;3.13;1.58;;;15.20;34.70;;;;;;5066207;28;20028;-81
2021/04/03 08:39:03;;;;;;;2.53;1.52;;;15.20;34.70;;;;;;5067826;28;20036;-83
2021/04/03 08:41:28;;;;;;;2.30;1.58;;;15.20;35.10;;;;;;5054969;28;20242;-81
2021/04/03 08:43:56;;;;;;;1.70;1.30;;;15.10;35.00;;;;;;5061990;28;20611;-80
2021/04/03 08:46:23;;;;;;;2.65;1.75;;;15.10;35.10;;;;;;5069862;28;20113;-81
2021/04/03 08:48:52;;;;;;;2.13;1.58;;;15.00;35.10;;;;;;5073515;28;20016;-81
2021/04/03 08:51:18;;;;;;;3.35;1.73;;;14.90;35.20;;;;;;5055290;28;20045;-82
2021/04/03 08:53:48;;;;;;;3.90;2.00;;;14.90;35.50;;;;;;5054219;28;20036;-79
2021/04/03 08:56:36;;;;;;;2.75;1.70;;;14.90;35.70;;;;;;5054038;28;20119;-81
2021/04/03 08:59:07;;;;;;;3.70;2.08;;;15.00;36.20;;;;;;5055144;28;20516;-82
2021/04/03 09:01:36;;;;;;;7.95;2.00;;;15.00;35.70;;;;;;5071685;28;20603;-80
2021/04/03 09:04:07;;;;;;;5.35;2.13;;;15.00;35.80;;;;;;5073068;28;20028;-82
2021/04/03 09:06:50;;;;;;;3.65;2.40;;;15.00;35.90;;;;;;5075100;28;20032;-81
2021/04/03 09:09:15;;;;;;;4.00;2.30;;;15.10;36.00;;;;;;5062094;28;20398;-80
2021/04/03 09:12:05;;;;;;;5.55;2.65;;;15.20;35.60;;;;;;5053681;28;20024;-81
2021/04/03 09:14:36;;;;;;;8.07;2.58;;;15.20;35.20;;;;;;5054923;28;20473;-80
2021/04/03 09:17:05;;;;;;;4.82;2.60;;;15.30;35.20;;;;;;5054798;28;20033;-80
2021/04/03 09:19:35;;;;;;;5.10;2.67;;;15.30;35.10;;;;;;5054742;28;20017;-81
2021/04/03 09:22:02;;;;;;;4.60;2.60;;;15.20;35.20;;;;;;5053801;28;20029;-82
2021/04/03 09:24:42;;;;;;;8.73;3.00;;;15.20;35.20;;;;;;5061008;28;20024;-79
2021/04/03 09:27:15;;;;;;;8.98;3.20;;;15.10;35.00;;;;;;5073007;28;20477;-81
2021/04/03 09:29:43;;;;;;;4.90;2.50;;;15.00;34.80;;;;;;5066216;28;20021;-80
2021/04/03 09:32:15;;;;;;;6.55;3.08;;;15.00;35.10;;;;;;5054558;28;20025;-80
2021/04/03 09:34:41;;;;;;;3.95;2.20;;;15.00;35.30;;;;;;5054451;28;20493;-81
2021/04/03 09:37:21;;;;;;;3.67;2.78;;;15.10;35.50;;;;;;5054585;28;20055;-80
2021/04/03 09:39:55;;;;;;;6.40;3.63;;;15.20;35.30;;;;;;5063524;28;20374;-79
2021/04/03 09:42:26;;;;;;;4.20;2.42;;;15.30;35.20;;;;;;5055189;28;20057;-81
2021/04/03 09:44:57;;;;;;;12.25;2.97;;;15.40;35.10;;;;;;5067771;28;20043;-81
2021/04/03 09:47:24;;;;;;;8.00;3.03;;;15.50;34.50;;;;;;5073083;28;20086;-82
2021/04/03 09:49:50;;;;;;;3.78;2.15;;;15.50;33.90;;;;;;5073979;28;20382;-81
2021/04/03 09:52:16;;;;;;;6.25;2.80;;;15.60;33.60;;;;;;5072848;28;20050;-83
2021/04/03 09:54:44;;;;;;;6.00;2.08;;;15.60;33.40;;;;;;5063333;28;20021;-80
2021/04/03 09:57:11;;;;;;;4.20;2.22;;;15.60;32.80;;;;;;5072788;28;20032;-80
2021/04/03 09:59:39;;;;;;;4.13;2.10;;;15.60;32.90;;;;;;5072847;28;20067;-81
2021/04/03 10:02:05;;;;;;;4.10;1.92;;;15.70;32.80;;;;;;5074022;28;20537;-83
2021/04/03 10:04:31;;;;;;;3.35;1.80;;;15.80;32.40;;;;;;5072791;28;20123;-81
2021/04/03 10:06:57;;;;;;;5.07;2.67;;;15.90;32.70;;;;;;5072754;28;20378;-83
2021/04/03 10:09:23;;;;;;;6.90;3.55;;;15.90;32.60;;;;;;5072661;28;20531;-80
2021/04/03 10:11:52;;;;;;;5.85;3.40;;;15.80;32.60;;;;;;5073856;28;20024;-79
2021/04/03 10:14:18;;;;;;;11.48;3.17;;;15.70;33.20;;;;;;5072639;28;20482;-80
2021/04/03 10:16:44;;;;;;;6.30;2.80;;;15.60;32.90;;;;;;5073805;28;20382;-82
2021/04/03 10:19:09;;;;;;;3.53;2.75;;;15.50;33.00;;;;;;5073963;28;20028;-81
2021/04/03 10:21:36;;;;;;;6.97;2.70;;;15.40;33.10;;;;;;5065026;28;20025;-79
2021/04/03 10:24:01;;;;;;;5.35;2.70;;;15.40;33.10;;;;;;5059422;28;20035;-81
2021/04/03 10:26:28;;;;;;;5.63;2.90;;;15.30;33.50;;;;;;5052769;28;20029;-82
2021/04/03 10:28:54;;;;;;;5.50;2.78;;;15.40;33.50;;;;;;5058013;28;20037;-81
2021/04/03 10:31:20;;;;;;;5.50;2.75;;;15.40;33.50;;;;;;5072602;28;20021;-81
2021/04/03 10:33:46;;;;;;;17.83;3.22;;;15.40;33.80;;;;;;5073658;28;20032;-80
2021/04/03 10:36:12;;;;;;;7.10;3.35;;;15.50;36.00;;;;;;5073713;28;20029;-80
2021/04/03 10:38:38;;;;;;;4.68;3.08;;;15.50;37.80;;;;;;5073760;28;20390;-83
2021/04/03 10:41:05;;;;;;;6.60;3.15;;;15.40;38.50;;;;;;5069161;28;20107;-79
2021/04/03 10:43:31;;;;;;;6.28;2.55;;;15.30;37.90;;;;;;5060956;28;20029;-81
2021/04/03 10:45:57;;;;;;;4.38;2.35;;;15.20;37.70;;;;;;5053794;28;20078;-79
2021/04/03 10:48:23;;;;;;;4.32;2.38;;;15.30;37.90;;;;;;5072970;28;20029;-81
2021/04/03 10:50:49;;;;;;;3.78;1.67;;;15.30;37.30;;;;;;5073449;28;20044;-79
2021/04/03 10:53:15;;;;;;;6.45;2.33;;;15.40;37.00;;;;;;5063131;28;20083;-82
2021/04/03 10:55:42;;;;;;;6.00;3.40;;;15.40;35.80;;;;;;5053406;28;20478;-80
2021/04/03 10:58:08;;;;;;;16.65;3.33;;;15.50;35.90;;;;;;5052438;28;20120;-74
2021/04/03 11:00:34;;;;;;;2.78;1.98;;;15.40;39.20;;;;;;5057830;28;20733;-67
2021/04/03 11:03:02;;;;;;;6.18;2.80;;;15.20;43.70;;;;;;5064493;28;20033;-67
2021/04/03 11:05:28;;;;;;;5.18;2.65;;;14.90;43.00;;;;;;5063859;28;20063;-68
2021/04/03 11:07:54;;;;;;;4.78;2.00;;;14.50;43.50;;;;;;5058255;28;20094;-68
2021/04/03 11:10:20;;;;;;;3.55;1.80;;;14.30;44.40;;;;;;5057499;28;20017;-68
2021/04/03 11:12:46;;;;;;;2.63;1.08;;;14.10;45.20;;;;;;5069612;28;20096;-68
2021/04/03 11:15:12;;;;;;;7.95;2.40;;;14.00;44.70;;;;;;5071263;28;20116;-68
2021/04/03 11:17:39;;;;;;;5.38;1.42;;;13.80;45.20;;;;;;5070960;28;20279;-68
2021/04/03 11:20:09;;;;;;;2.75;1.40;;;13.80;44.80;;;;;;5071026;28;20066;-68
2021/04/03 11:22:40;;;;;;;2.53;1.42;;;13.70;43.60;;;;;;5065885;28;20067;-68
2021/04/03 11:25:07;;;;;;;6.70;2.05;;;13.60;43.40;;;;;;5064985;28;20032;-68
2021/04/03 11:27:33;;;;;;;3.72;2.15;;;13.50;42.70;;;;;;5068267;28;20531;-68
2021/04/03 11:30:13;;;;;;;6.00;2.95;;;13.50;43.90;;;;;;5068666;28;20070;-68
2021/04/03 11:32:49;;;;;;;4.90;2.80;;;13.60;44.70;;;;;;5066998;28;20013;-68
2021/04/03 11:35:19;;;;;;;5.40;2.85;;;13.70;44.70;;;;;;5070626;28;20035;-68
2021/04/03 11:37:46;;;;;;;9.50;2.67;;;13.80;43.90;;;;;;5063500;28;20016;-69
2021/04/03 11:40:14;;;;;;;5.53;3.10;;;14.00;44.20;;;;;;5072433;28;20025;-68
2021/04/03 11:42:40;;;;;;;4.18;2.58;;;14.00;42.50;;;;;;5064555;28;20111;-68
2021/04/03 11:45:08;;;;;;;8.00;1.75;;;14.00;43.10;;;;;;5064375;28;20108;-68
2021/04/03 11:47:34;;;;;;;1.40;1.10;;;13.90;42.90;;;;;;5064447;28;20047;-68
2021/04/03 11:50:02;;;;;;;7.43;1.25;;;13.80;42.90;;;;;;5064152;28;20544;-69
2021/04/03 11:52:34;;;;;;;3.47;1.10;;;13.60;43.60;;;;;;5064421;28;20029;-69
2021/04/03 11:55:00;;;;;;;2.25;1.13;;;13.50;45.00;;;;;;5064289;28;20039;-68
2021/04/03 11:57:29;;;;;;;0.73;0.70;;;13.30;44.90;;;;;;5065838;28;20032;-69
2021/04/03 11:59:56;;;;;;;1.88;1.00;;;13.10;44.80;;;;;;5064444;28;20139;-69
2021/04/03 12:02:22;;;;;;;3.30;1.15;;;13.00;45.90;;;;;;5065522;28;20120;-69
2021/04/03 12:04:48;;;;;;;2.28;1.08;;;13.00;46.60;;;;;;5063668;28;20071;-69
2021/04/03 12:07:14;;;;;;;3.05;1.40;;;13.00;46.30;;;;;;5064345;28;20028;-69
2021/04/03 12:09:40;;;;;;;1.13;0.98;;;12.90;45.90;;;;;;5067994;28;20028;-69
2021/04/03 12:12:07;;;;;;;2.40;1.40;;;12.80;46.10;;;;;;5067183;28;20020;-69
2021/04/03 12:14:34;;;;;;;2.50;1.65;;;12.80;46.30;;;;;;5070388;28;20021;-69
2021/04/03 12:16:59;;;;;;;6.90;2.05;;;12.70;47.30;;;;;;5072484;28;20024;-69
2021/04/03 12:19:25;;;;;;;2.30;1.75;;;12.70;48.30;;;;;;5070671;28;20047;-68
2021/04/03 12:21:52;;;;;;;2.10;1.60;;;12.70;49.30;;;;;;5070054;28;20032;-69
2021/04/03 12:24:18;;;;;;;3.38;1.92;;;12.80;49.60;;;;;;5063464;28;20482;-69
2021/04/03 12:26:44;;;;;;;4.38;1.70;;;12.90;49.70;;;;;;5060880;28;20024;-69
2021/04/03 12:29:10;;;;;;;2.88;1.65;;;13.10;50.00;;;;;;5064709;28;20028;-69
2021/04/03 12:31:36;;;;;;;4.25;2.00;;;13.30;49.00;;;;;;5059370;28;20111;-69
2021/04/03 12:34:04;;;;;;;3.65;2.20;;;13.50;49.80;;;;;;5062140;28;20028;-69
2021/04/03 12:36:30;;;;;;;3.08;1.83;;;13.70;47.90;;;;;;5060476;28;20025;-69
2021/04/03 12:38:56;;;;;;;4.00;2.30;;;13.90;47.90;;;;;;5064244;28;20020;-69
2021/04/03 12:41:22;;;;;;;2.42;1.75;;;14.10;45.70;;;;;;5065227;28;20100;-69
2021/04/03 12:43:48;;;;;;;3.30;1.83;;;14.30;45.90;;;;;;5061839;28;20056;-69
2021/04/03 12:46:14;;;;;;;2.22;1.77;;;14.50;45.70;;;;;;5064014;28;20065;-68
2021/04/03 12:48:39;;;;;;;2.55;2.00;;;14.50;44.90;;;;;;5063263;28;20427;-69
2021/04/03 12:51:06;;;;;;;2.90;1.80;;;14.40;44.80;;;;;;5063062;28;20182;-69
2021/04/03 12:53:32;;;;;;;2.92;1.75;;;14.40;45.30;;;;;;5066633;28;20478;-69